sensor_id;sensor_type;location;lat;lon;timestamp;P1;durP1;ratioP1;P2;durP2;ratioP2
52724;SDS011;38621;52.830;6.914;2023-12-22T00:01:29;9.82;;;9.20;;
52724;SDS011;38621;52.830;6.914;2023-12-22T00:03:55;12.15;;;11.05;;
52724;SDS011;38621;52.830;6.914;2023-12-22T00:06:21;11.07;;;10.23;;
52724;SDS011;38621;52.830;6.914;2023-12-22T00:08:47;12.48;;;11.38;;
52724;SDS011;38621;52.830;6.914;2023-12-22T00:11:12;10.90;;;9.98;;
52724;SDS011;38621;52.830;6.914;2023-12-22T00:13:38;10.00;;;9.27;;
52724;SDS011;38621;52.830;6.914;2023-12-22T00:16:04;12.57;;;9.35;;
52724;SDS011;38621;52.830;6.914;2023-12-22T00:18:29;11.82;;;8.02;;
52724;SDS011;38621;52.830;6.914;2023-12-22T00:20:56;11.27;;;10.20;;
52724;SDS011;38621;52.830;6.914;2023-12-22T00:23:21;10.48;;;9.48;;
52724;SDS011;38621;52.830;6.914;2023-12-22T00:25:47;10.05;;;9.25;;
52724;SDS011;38621;52.830;6.914;2023-12-22T00:28:13;9.23;;;8.35;;
52724;SDS011;38621;52.830;6.914;2023-12-22T00:30:38;9.50;;;8.63;;
52724;SDS011;38621;52.830;6.914;2023-12-22T00:33:04;10.02;;;7.05;;
52724;SDS011;38621;52.830;6.914;2023-12-22T00:35:29;11.40;;;6.45;;
52724;SDS011;38621;52.830;6.914;2023-12-22T00:37:56;11.35;;;6.53;;
52724;SDS011;38621;52.830;6.914;2023-12-22T00:40:21;8.70;;;5.65;;
52724;SDS011;38621;52.830;6.914;2023-12-22T00:42:47;7.22;;;5.55;;
52724;SDS011;38621;52.830;6.914;2023-12-22T00:45:12;7.75;;;5.95;;
52724;SDS011;38621;52.830;6.914;2023-12-22T00:47:38;8.82;;;5.53;;
52724;SDS011;38621;52.830;6.914;2023-12-22T00:50:04;8.15;;;6.85;;
52724;SDS011;38621;52.830;6.914;2023-12-22T00:52:30;8.02;;;5.63;;
52724;SDS011;38621;52.830;6.914;2023-12-22T00:54:56;25.95;;;6.22;;
52724;SDS011;38621;52.830;6.914;2023-12-22T00:57:22;6.32;;;5.00;;
52724;SDS011;38621;52.830;6.914;2023-12-22T00:59:48;12.93;;;6.70;;
52724;SDS011;38621;52.830;6.914;2023-12-22T01:02:14;13.30;;;7.75;;
52724;SDS011;38621;52.830;6.914;2023-12-22T01:04:40;13.32;;;8.90;;
52724;SDS011;38621;52.830;6.914;2023-12-22T01:07:09;9.23;;;8.48;;
52724;SDS011;38621;52.830;6.914;2023-12-22T01:09:36;11.43;;;10.50;;
52724;SDS011;38621;52.830;6.914;2023-12-22T01:12:03;10.75;;;9.95;;
52724;SDS011;38621;52.830;6.914;2023-12-22T01:14:30;10.38;;;9.40;;
52724;SDS011;38621;52.830;6.914;2023-12-22T01:16:55;12.40;;;11.30;;
52724;SDS011;38621;52.830;6.914;2023-12-22T01:19:21;12.23;;;11.15;;
52724;SDS011;38621;52.830;6.914;2023-12-22T01:21:47;11.90;;;10.93;;
52724;SDS011;38621;52.830;6.914;2023-12-22T01:24:14;12.93;;;12.00;;
52724;SDS011;38621;52.830;6.914;2023-12-22T01:26:40;12.88;;;11.82;;
52724;SDS011;38621;52.830;6.914;2023-12-22T01:29:06;15.93;;;14.63;;
52724;SDS011;38621;52.830;6.914;2023-12-22T01:31:31;14.65;;;13.13;;
52724;SDS011;38621;52.830;6.914;2023-12-22T01:33:57;13.82;;;12.77;;
52724;SDS011;38621;52.830;6.914;2023-12-22T01:36:22;12.18;;;11.38;;
52724;SDS011;38621;52.830;6.914;2023-12-22T01:38:48;14.43;;;10.80;;
52724;SDS011;38621;52.830;6.914;2023-12-22T01:41:14;9.52;;;8.43;;
52724;SDS011;38621;52.830;6.914;2023-12-22T01:43:39;9.00;;;8.30;;
52724;SDS011;38621;52.830;6.914;2023-12-22T01:46:05;7.13;;;6.43;;
52724;SDS011;38621;52.830;6.914;2023-12-22T01:48:32;6.97;;;6.50;;
52724;SDS011;38621;52.830;6.914;2023-12-22T01:50:59;14.68;;;6.93;;
52724;SDS011;38621;52.830;6.914;2023-12-22T01:53:27;6.40;;;5.82;;
52724;SDS011;38621;52.830;6.914;2023-12-22T01:55:54;5.43;;;5.03;;
52724;SDS011;38621;52.830;6.914;2023-12-22T01:58:21;10.88;;;4.70;;
52724;SDS011;38621;52.830;6.914;2023-12-22T02:00:48;8.45;;;5.57;;
52724;SDS011;38621;52.830;6.914;2023-12-22T02:03:14;4.28;;;3.97;;
52724;SDS011;38621;52.830;6.914;2023-12-22T02:05:41;9.20;;;4.68;;
52724;SDS011;38621;52.830;6.914;2023-12-22T02:08:08;3.55;;;3.25;;
52724;SDS011;38621;52.830;6.914;2023-12-22T02:10:35;5.65;;;3.53;;
52724;SDS011;38621;52.830;6.914;2023-12-22T02:13:02;8.60;;;4.72;;
52724;SDS011;38621;52.830;6.914;2023-12-22T02:15:28;6.05;;;4.90;;
52724;SDS011;38621;52.830;6.914;2023-12-22T02:20:41;6.53;;;4.22;;
52724;SDS011;38621;52.830;6.914;2023-12-22T02:23:09;5.57;;;4.30;;
52724;SDS011;38621;52.830;6.914;2023-12-22T02:25:35;5.70;;;4.70;;
52724;SDS011;38621;52.830;6.914;2023-12-22T02:28:05;8.88;;;4.40;;
52724;SDS011;38621;52.830;6.914;2023-12-22T02:33:22;6.10;;;3.40;;
52724;SDS011;38621;52.830;6.914;2023-12-22T02:35:52;4.63;;;4.20;;
52724;SDS011;38621;52.830;6.914;2023-12-22T02:38:23;8.82;;;4.22;;
52724;SDS011;38621;52.830;6.914;2023-12-22T02:40:50;12.02;;;7.53;;
52724;SDS011;38621;52.830;6.914;2023-12-22T02:43:16;10.35;;;8.13;;
52724;SDS011;38621;52.830;6.914;2023-12-22T02:45:42;16.00;;;9.20;;
52724;SDS011;38621;52.830;6.914;2023-12-22T02:48:08;12.93;;;9.27;;
52724;SDS011;38621;52.830;6.914;2023-12-22T02:50:33;11.55;;;10.07;;
52724;SDS011;38621;52.830;6.914;2023-12-22T02:52:59;10.50;;;9.63;;
52724;SDS011;38621;52.830;6.914;2023-12-22T02:55:25;10.88;;;10.07;;
52724;SDS011;38621;52.830;6.914;2023-12-22T02:57:50;13.13;;;11.70;;
52724;SDS011;38621;52.830;6.914;2023-12-22T03:00:16;15.75;;;11.30;;
52724;SDS011;38621;52.830;6.914;2023-12-22T03:02:42;12.00;;;11.40;;
52724;SDS011;38621;52.830;6.914;2023-12-22T03:05:07;12.50;;;11.20;;
52724;SDS011;38621;52.830;6.914;2023-12-22T03:07:33;12.75;;;10.32;;
52724;SDS011;38621;52.830;6.914;2023-12-22T03:09:59;10.90;;;8.55;;
52724;SDS011;38621;52.830;6.914;2023-12-22T03:12:24;10.98;;;9.43;;
52724;SDS011;38621;52.830;6.914;2023-12-22T03:14:50;9.25;;;8.30;;
52724;SDS011;38621;52.830;6.914;2023-12-22T03:17:15;7.85;;;6.05;;
52724;SDS011;38621;52.830;6.914;2023-12-22T03:19:41;8.43;;;5.93;;
52724;SDS011;38621;52.830;6.914;2023-12-22T03:22:07;7.78;;;5.85;;
52724;SDS011;38621;52.830;6.914;2023-12-22T03:24:32;6.22;;;5.78;;
52724;SDS011;38621;52.830;6.914;2023-12-22T03:26:58;7.38;;;4.45;;
52724;SDS011;38621;52.830;6.914;2023-12-22T03:29:24;4.10;;;3.70;;
52724;SDS011;38621;52.830;6.914;2023-12-22T03:31:50;5.53;;;5.13;;
52724;SDS011;38621;52.830;6.914;2023-12-22T03:34:15;4.90;;;4.25;;
52724;SDS011;38621;52.830;6.914;2023-12-22T03:36:41;5.10;;;4.78;;
52724;SDS011;38621;52.830;6.914;2023-12-22T03:39:07;4.28;;;3.88;;
52724;SDS011;38621;52.830;6.914;2023-12-22T03:41:32;4.15;;;3.60;;
52724;SDS011;38621;52.830;6.914;2023-12-22T03:43:59;4.78;;;3.60;;
52724;SDS011;38621;52.830;6.914;2023-12-22T03:46:24;3.78;;;3.40;;
52724;SDS011;38621;52.830;6.914;2023-12-22T03:48:50;4.75;;;3.40;;
52724;SDS011;38621;52.830;6.914;2023-12-22T03:51:16;5.88;;;3.38;;
52724;SDS011;38621;52.830;6.914;2023-12-22T03:53:42;4.68;;;3.05;;
52724;SDS011;38621;52.830;6.914;2023-12-22T03:56:08;6.13;;;3.80;;
52724;SDS011;38621;52.830;6.914;2023-12-22T03:58:34;6.07;;;4.00;;
52724;SDS011;38621;52.830;6.914;2023-12-22T04:01:00;8.80;;;6.10;;
52724;SDS011;38621;52.830;6.914;2023-12-22T04:03:26;7.05;;;6.53;;
52724;SDS011;38621;52.830;6.914;2023-12-22T04:05:52;8.55;;;7.95;;
52724;SDS011;38621;52.830;6.914;2023-12-22T04:08:17;8.75;;;8.23;;
52724;SDS011;38621;52.830;6.914;2023-12-22T04:10:45;9.07;;;8.55;;
52724;SDS011;38621;52.830;6.914;2023-12-22T04:13:10;9.02;;;8.43;;
52724;SDS011;38621;52.830;6.914;2023-12-22T04:15:36;11.38;;;10.40;;
52724;SDS011;38621;52.830;6.914;2023-12-22T04:18:02;10.10;;;9.50;;
52724;SDS011;38621;52.830;6.914;2023-12-22T04:20:28;11.25;;;10.73;;
52724;SDS011;38621;52.830;6.914;2023-12-22T04:22:53;12.63;;;11.93;;
52724;SDS011;38621;52.830;6.914;2023-12-22T04:25:19;12.85;;;12.35;;
52724;SDS011;38621;52.830;6.914;2023-12-22T04:27:45;13.93;;;12.57;;
52724;SDS011;38621;52.830;6.914;2023-12-22T04:30:10;12.95;;;11.77;;
52724;SDS011;38621;52.830;6.914;2023-12-22T04:32:36;13.52;;;12.68;;
52724;SDS011;38621;52.830;6.914;2023-12-22T04:35:02;13.93;;;13.02;;
52724;SDS011;38621;52.830;6.914;2023-12-22T04:37:28;13.13;;;12.07;;
52724;SDS011;38621;52.830;6.914;2023-12-22T04:39:54;12.85;;;11.45;;
52724;SDS011;38621;52.830;6.914;2023-12-22T04:42:19;13.90;;;12.50;;
52724;SDS011;38621;52.830;6.914;2023-12-22T04:44:45;13.23;;;12.32;;
52724;SDS011;38621;52.830;6.914;2023-12-22T04:47:11;12.05;;;10.57;;
52724;SDS011;38621;52.830;6.914;2023-12-22T04:49:37;11.27;;;10.57;;
52724;SDS011;38621;52.830;6.914;2023-12-22T04:52:03;10.82;;;9.65;;
52724;SDS011;38621;52.830;6.914;2023-12-22T04:54:29;10.80;;;10.07;;
52724;SDS011;38621;52.830;6.914;2023-12-22T04:56:55;11.43;;;8.75;;
52724;SDS011;38621;52.830;6.914;2023-12-22T04:59:21;17.15;;;9.23;;
52724;SDS011;38621;52.830;6.914;2023-12-22T05:01:46;11.98;;;10.35;;
52724;SDS011;38621;52.830;6.914;2023-12-22T05:04:12;11.23;;;10.60;;
52724;SDS011;38621;52.830;6.914;2023-12-22T05:06:38;10.65;;;10.05;;
52724;SDS011;38621;52.830;6.914;2023-12-22T05:09:03;8.85;;;8.13;;
52724;SDS011;38621;52.830;6.914;2023-12-22T05:11:29;10.70;;;7.65;;
52724;SDS011;38621;52.830;6.914;2023-12-22T05:13:55;7.95;;;7.07;;
52724;SDS011;38621;52.830;6.914;2023-12-22T05:16:20;10.98;;;6.78;;
52724;SDS011;38621;52.830;6.914;2023-12-22T05:18:46;10.15;;;8.77;;
52724;SDS011;38621;52.830;6.914;2023-12-22T05:21:12;9.70;;;8.27;;
52724;SDS011;38621;52.830;6.914;2023-12-22T05:23:39;9.85;;;6.20;;
52724;SDS011;38621;52.830;6.914;2023-12-22T05:26:05;13.02;;;8.32;;
52724;SDS011;38621;52.830;6.914;2023-12-22T05:28:31;7.93;;;7.10;;
52724;SDS011;38621;52.830;6.914;2023-12-22T05:30:57;8.43;;;7.63;;
52724;SDS011;38621;52.830;6.914;2023-12-22T05:33:23;12.23;;;6.43;;
52724;SDS011;38621;52.830;6.914;2023-12-22T05:35:49;7.05;;;6.43;;
52724;SDS011;38621;52.830;6.914;2023-12-22T05:38:14;10.50;;;6.28;;
52724;SDS011;38621;52.830;6.914;2023-12-22T05:40:40;10.52;;;8.68;;
52724;SDS011;38621;52.830;6.914;2023-12-22T05:43:06;8.55;;;5.20;;
52724;SDS011;38621;52.830;6.914;2023-12-22T05:45:32;7.15;;;6.18;;
52724;SDS011;38621;52.830;6.914;2023-12-22T05:47:58;8.75;;;6.95;;
52724;SDS011;38621;52.830;6.914;2023-12-22T05:50:23;10.23;;;6.97;;
52724;SDS011;38621;52.830;6.914;2023-12-22T05:52:49;8.73;;;7.07;;
52724;SDS011;38621;52.830;6.914;2023-12-22T05:55:15;7.03;;;5.43;;
52724;SDS011;38621;52.830;6.914;2023-12-22T05:57:40;13.18;;;6.15;;
52724;SDS011;38621;52.830;6.914;2023-12-22T06:00:06;8.30;;;5.47;;
52724;SDS011;38621;52.830;6.914;2023-12-22T06:02:35;6.38;;;5.25;;
52724;SDS011;38621;52.830;6.914;2023-12-22T06:05:00;6.88;;;5.05;;
52724;SDS011;38621;52.830;6.914;2023-12-22T06:07:26;12.00;;;5.32;;
52724;SDS011;38621;52.830;6.914;2023-12-22T06:09:52;8.32;;;5.60;;
52724;SDS011;38621;52.830;6.914;2023-12-22T06:12:18;11.82;;;6.20;;
52724;SDS011;38621;52.830;6.914;2023-12-22T06:14:44;11.35;;;5.45;;
52724;SDS011;38621;52.830;6.914;2023-12-22T06:17:09;9.88;;;4.70;;
52724;SDS011;38621;52.830;6.914;2023-12-22T06:19:36;8.07;;;5.28;;
52724;SDS011;38621;52.830;6.914;2023-12-22T06:22:01;5.63;;;3.78;;
52724;SDS011;38621;52.830;6.914;2023-12-22T06:24:27;10.43;;;5.05;;
52724;SDS011;38621;52.830;6.914;2023-12-22T06:26:53;10.85;;;4.07;;
52724;SDS011;38621;52.830;6.914;2023-12-22T06:29:19;7.60;;;4.30;;
52724;SDS011;38621;52.830;6.914;2023-12-22T06:31:45;7.93;;;4.45;;
52724;SDS011;38621;52.830;6.914;2023-12-22T06:34:15;6.13;;;3.63;;
52724;SDS011;38621;52.830;6.914;2023-12-22T06:36:41;6.97;;;4.18;;
52724;SDS011;38621;52.830;6.914;2023-12-22T06:39:07;4.78;;;3.78;;
52724;SDS011;38621;52.830;6.914;2023-12-22T06:41:33;7.32;;;4.65;;
52724;SDS011;38621;52.830;6.914;2023-12-22T06:43:59;7.88;;;4.25;;
52724;SDS011;38621;52.830;6.914;2023-12-22T06:46:25;7.05;;;4.55;;
52724;SDS011;38621;52.830;6.914;2023-12-22T06:48:51;8.38;;;3.72;;
52724;SDS011;38621;52.830;6.914;2023-12-22T06:51:21;10.13;;;3.75;;
52724;SDS011;38621;52.830;6.914;2023-12-22T06:53:48;8.70;;;4.68;;
52724;SDS011;38621;52.830;6.914;2023-12-22T06:56:15;8.38;;;4.25;;
52724;SDS011;38621;52.830;6.914;2023-12-22T06:58:45;4.05;;;3.63;;
52724;SDS011;38621;52.830;6.914;2023-12-22T07:01:17;9.90;;;4.57;;
52724;SDS011;38621;52.830;6.914;2023-12-22T07:03:45;14.48;;;6.20;;
52724;SDS011;38621;52.830;6.914;2023-12-22T07:06:14;7.82;;;3.65;;
52724;SDS011;38621;52.830;6.914;2023-12-22T07:08:40;7.15;;;2.97;;
52724;SDS011;38621;52.830;6.914;2023-12-22T07:11:07;6.60;;;3.20;;
52724;SDS011;38621;52.830;6.914;2023-12-22T07:13:39;7.72;;;3.70;;
52724;SDS011;38621;52.830;6.914;2023-12-22T07:16:04;5.63;;;3.65;;
52724;SDS011;38621;52.830;6.914;2023-12-22T07:18:31;7.95;;;4.45;;
52724;SDS011;38621;52.830;6.914;2023-12-22T07:20:57;6.95;;;4.32;;
52724;SDS011;38621;52.830;6.914;2023-12-22T07:23:24;8.13;;;4.05;;
52724;SDS011;38621;52.830;6.914;2023-12-22T07:25:49;8.48;;;3.60;;
52724;SDS011;38621;52.830;6.914;2023-12-22T07:28:15;4.35;;;3.53;;
52724;SDS011;38621;52.830;6.914;2023-12-22T07:30:41;6.88;;;3.72;;
52724;SDS011;38621;52.830;6.914;2023-12-22T07:33:07;6.72;;;3.60;;
52724;SDS011;38621;52.830;6.914;2023-12-22T07:35:33;11.60;;;5.30;;
52724;SDS011;38621;52.830;6.914;2023-12-22T07:37:59;6.22;;;3.45;;
52724;SDS011;38621;52.830;6.914;2023-12-22T07:40:27;6.95;;;4.10;;
52724;SDS011;38621;52.830;6.914;2023-12-22T07:42:56;7.10;;;4.00;;
52724;SDS011;38621;52.830;6.914;2023-12-22T07:45:22;10.43;;;3.53;;
52724;SDS011;38621;52.830;6.914;2023-12-22T07:47:48;5.72;;;4.38;;
52724;SDS011;38621;52.830;6.914;2023-12-22T07:50:14;6.55;;;4.68;;
52724;SDS011;38621;52.830;6.914;2023-12-22T07:52:40;5.68;;;3.45;;
52724;SDS011;38621;52.830;6.914;2023-12-22T07:55:06;10.10;;;4.60;;
52724;SDS011;38621;52.830;6.914;2023-12-22T07:57:35;5.25;;;3.25;;
52724;SDS011;38621;52.830;6.914;2023-12-22T08:00:00;7.68;;;4.00;;
52724;SDS011;38621;52.830;6.914;2023-12-22T08:02:26;6.38;;;4.35;;
52724;SDS011;38621;52.830;6.914;2023-12-22T08:04:52;3.70;;;3.40;;
52724;SDS011;38621;52.830;6.914;2023-12-22T08:07:17;5.88;;;4.10;;
52724;SDS011;38621;52.830;6.914;2023-12-22T08:09:43;7.82;;;4.10;;
52724;SDS011;38621;52.830;6.914;2023-12-22T08:12:09;7.72;;;4.60;;
52724;SDS011;38621;52.830;6.914;2023-12-22T08:14:35;7.90;;;4.38;;
52724;SDS011;38621;52.830;6.914;2023-12-22T08:17:00;10.10;;;4.60;;
52724;SDS011;38621;52.830;6.914;2023-12-22T08:19:26;6.50;;;4.47;;
52724;SDS011;38621;52.830;6.914;2023-12-22T08:21:52;12.13;;;5.28;;
52724;SDS011;38621;52.830;6.914;2023-12-22T08:24:19;9.13;;;5.10;;
52724;SDS011;38621;52.830;6.914;2023-12-22T08:26:45;7.47;;;4.53;;
52724;SDS011;38621;52.830;6.914;2023-12-22T08:29:11;7.07;;;4.30;;
52724;SDS011;38621;52.830;6.914;2023-12-22T08:31:36;10.70;;;4.78;;
52724;SDS011;38621;52.830;6.914;2023-12-22T08:34:02;7.25;;;4.90;;
52724;SDS011;38621;52.830;6.914;2023-12-22T08:36:28;8.32;;;5.00;;
52724;SDS011;38621;52.830;6.914;2023-12-22T08:38:53;9.55;;;5.90;;
52724;SDS011;38621;52.830;6.914;2023-12-22T08:41:19;16.25;;;7.28;;
52724;SDS011;38621;52.830;6.914;2023-12-22T08:43:45;12.55;;;7.20;;
52724;SDS011;38621;52.830;6.914;2023-12-22T08:46:11;8.05;;;7.22;;
52724;SDS011;38621;52.830;6.914;2023-12-22T08:48:37;9.88;;;7.78;;
52724;SDS011;38621;52.830;6.914;2023-12-22T08:51:03;8.20;;;7.45;;
52724;SDS011;38621;52.830;6.914;2023-12-22T08:53:29;12.57;;;7.30;;
52724;SDS011;38621;52.830;6.914;2023-12-22T08:55:59;7.65;;;6.93;;
52724;SDS011;38621;52.830;6.914;2023-12-22T08:58:25;7.80;;;7.03;;
52724;SDS011;38621;52.830;6.914;2023-12-22T09:00:51;8.82;;;7.75;;
52724;SDS011;38621;52.830;6.914;2023-12-22T09:03:17;8.38;;;7.68;;
52724;SDS011;38621;52.830;6.914;2023-12-22T09:05:42;6.50;;;5.03;;
52724;SDS011;38621;52.830;6.914;2023-12-22T09:08:08;10.23;;;9.73;;
52724;SDS011;38621;52.830;6.914;2023-12-22T09:10:34;7.07;;;6.43;;
52724;SDS011;38621;52.830;6.914;2023-12-22T09:13:00;6.65;;;6.18;;
52724;SDS011;38621;52.830;6.914;2023-12-22T09:15:26;6.13;;;5.72;;
52724;SDS011;38621;52.830;6.914;2023-12-22T09:17:52;5.65;;;5.25;;
52724;SDS011;38621;52.830;6.914;2023-12-22T09:20:20;5.80;;;5.30;;
52724;SDS011;38621;52.830;6.914;2023-12-22T09:22:46;5.90;;;5.40;;
52724;SDS011;38621;52.830;6.914;2023-12-22T09:25:12;4.50;;;4.20;;
52724;SDS011;38621;52.830;6.914;2023-12-22T09:27:38;5.47;;;5.05;;
52724;SDS011;38621;52.830;6.914;2023-12-22T09:30:04;4.18;;;3.88;;
52724;SDS011;38621;52.830;6.914;2023-12-22T09:32:33;4.53;;;4.10;;
52724;SDS011;38621;52.830;6.914;2023-12-22T09:35:00;4.35;;;3.90;;
52724;SDS011;38621;52.830;6.914;2023-12-22T09:37:26;4.90;;;4.57;;
52724;SDS011;38621;52.830;6.914;2023-12-22T09:39:52;5.28;;;4.88;;
52724;SDS011;38621;52.830;6.914;2023-12-22T09:42:19;6.10;;;4.88;;
52724;SDS011;38621;52.830;6.914;2023-12-22T09:44:46;4.18;;;3.83;;
52724;SDS011;38621;52.830;6.914;2023-12-22T09:47:14;4.53;;;3.90;;
52724;SDS011;38621;52.830;6.914;2023-12-22T09:49:42;4.00;;;3.70;;
52724;SDS011;38621;52.830;6.914;2023-12-22T09:52:09;3.70;;;3.40;;
52724;SDS011;38621;52.830;6.914;2023-12-22T09:54:36;4.88;;;3.63;;
52724;SDS011;38621;52.830;6.914;2023-12-22T09:57:03;3.85;;;3.55;;
52724;SDS011;38621;52.830;6.914;2023-12-22T09:59:29;3.53;;;3.20;;
52724;SDS011;38621;52.830;6.914;2023-12-22T10:01:56;12.48;;;3.67;;
52724;SDS011;38621;52.830;6.914;2023-12-22T10:04:24;3.17;;;2.88;;
52724;SDS011;38621;52.830;6.914;2023-12-22T10:06:50;5.15;;;3.67;;
52724;SDS011;38621;52.830;6.914;2023-12-22T10:09:18;4.68;;;3.50;;
52724;SDS011;38621;52.830;6.914;2023-12-22T10:11:44;3.95;;;3.10;;
52724;SDS011;38621;52.830;6.914;2023-12-22T10:14:14;3.90;;;3.50;;
52724;SDS011;38621;52.830;6.914;2023-12-22T10:16:47;2.83;;;2.50;;
52724;SDS011;38621;52.830;6.914;2023-12-22T10:19:16;3.50;;;3.15;;
52724;SDS011;38621;52.830;6.914;2023-12-22T10:21:42;4.95;;;3.38;;
52724;SDS011;38621;52.830;6.914;2023-12-22T10:24:18;3.95;;;3.22;;
52724;SDS011;38621;52.830;6.914;2023-12-22T10:27:04;4.00;;;3.70;;
52724;SDS011;38621;52.830;6.914;2023-12-22T10:29:31;3.75;;;3.35;;
52724;SDS011;38621;52.830;6.914;2023-12-22T10:31:58;7.55;;;3.22;;
52724;SDS011;38621;52.830;6.914;2023-12-22T10:34:26;6.20;;;3.55;;
52724;SDS011;38621;52.830;6.914;2023-12-22T10:36:51;5.32;;;3.67;;
52724;SDS011;38621;52.830;6.914;2023-12-22T10:39:17;4.20;;;3.80;;
52724;SDS011;38621;52.830;6.914;2023-12-22T10:41:43;5.55;;;3.70;;
52724;SDS011;38621;52.830;6.914;2023-12-22T10:44:09;5.43;;;4.75;;
52724;SDS011;38621;52.830;6.914;2023-12-22T10:46:35;5.25;;;4.03;;
52724;SDS011;38621;52.830;6.914;2023-12-22T10:49:01;5.78;;;4.88;;
52724;SDS011;38621;52.830;6.914;2023-12-22T10:51:29;5.63;;;3.70;;
52724;SDS011;38621;52.830;6.914;2023-12-22T10:53:57;4.70;;;4.25;;
52724;SDS011;38621;52.830;6.914;2023-12-22T10:56:24;4.50;;;4.13;;
52724;SDS011;38621;52.830;6.914;2023-12-22T10:58:50;5.68;;;4.03;;
52724;SDS011;38621;52.830;6.914;2023-12-22T11:01:20;5.22;;;4.38;;
52724;SDS011;38621;52.830;6.914;2023-12-22T11:03:50;13.40;;;5.07;;
52724;SDS011;38621;52.830;6.914;2023-12-22T11:06:16;8.35;;;5.13;;
52724;SDS011;38621;52.830;6.914;2023-12-22T11:08:45;10.00;;;4.88;;
52724;SDS011;38621;52.830;6.914;2023-12-22T11:11:15;4.80;;;4.47;;
52724;SDS011;38621;52.830;6.914;2023-12-22T11:13:45;8.43;;;4.75;;
52724;SDS011;38621;52.830;6.914;2023-12-22T11:16:12;7.53;;;5.25;;
52724;SDS011;38621;52.830;6.914;2023-12-22T11:18:39;6.22;;;4.70;;
52724;SDS011;38621;52.830;6.914;2023-12-22T11:21:06;10.18;;;4.97;;
52724;SDS011;38621;52.830;6.914;2023-12-22T11:23:35;5.15;;;4.63;;
52724;SDS011;38621;52.830;6.914;2023-12-22T11:26:02;9.32;;;4.35;;
52724;SDS011;38621;52.830;6.914;2023-12-22T11:28:30;6.25;;;4.43;;
52724;SDS011;38621;52.830;6.914;2023-12-22T11:30:58;6.88;;;4.40;;
52724;SDS011;38621;52.830;6.914;2023-12-22T11:33:26;8.65;;;4.47;;
52724;SDS011;38621;52.830;6.914;2023-12-22T11:35:55;5.07;;;4.65;;
52724;SDS011;38621;52.830;6.914;2023-12-22T11:38:22;5.88;;;4.15;;
52724;SDS011;38621;52.830;6.914;2023-12-22T11:40:48;7.90;;;4.68;;
52724;SDS011;38621;52.830;6.914;2023-12-22T11:43:17;7.38;;;4.43;;
52724;SDS011;38621;52.830;6.914;2023-12-22T11:45:44;4.90;;;4.38;;
52724;SDS011;38621;52.830;6.914;2023-12-22T11:48:10;7.43;;;4.45;;
52724;SDS011;38621;52.830;6.914;2023-12-22T11:50:36;3.97;;;3.60;;
52724;SDS011;38621;52.830;6.914;2023-12-22T11:53:19;4.38;;;3.97;;
52724;SDS011;38621;52.830;6.914;2023-12-22T11:56:05;5.10;;;4.30;;
52724;SDS011;38621;52.830;6.914;2023-12-22T11:58:43;6.18;;;3.63;;
52724;SDS011;38621;52.830;6.914;2023-12-22T12:01:16;10.93;;;4.15;;
52724;SDS011;38621;52.830;6.914;2023-12-22T12:03:50;5.15;;;3.95;;
52724;SDS011;38621;52.830;6.914;2023-12-22T12:08:55;7.65;;;4.07;;
52724;SDS011;38621;52.830;6.914;2023-12-22T12:11:23;11.98;;;3.88;;
52724;SDS011;38621;52.830;6.914;2023-12-22T12:13:49;5.05;;;4.60;;
52724;SDS011;38621;52.830;6.914;2023-12-22T12:16:19;5.60;;;4.07;;
52724;SDS011;38621;52.830;6.914;2023-12-22T12:18:48;4.32;;;3.92;;
52724;SDS011;38621;52.830;6.914;2023-12-22T12:21:15;3.72;;;3.53;;
52724;SDS011;38621;52.830;6.914;2023-12-22T12:23:41;15.80;;;4.72;;
52724;SDS011;38621;52.830;6.914;2023-12-22T12:26:07;6.60;;;3.92;;
52724;SDS011;38621;52.830;6.914;2023-12-22T12:28:34;4.32;;;3.92;;
52724;SDS011;38621;52.830;6.914;2023-12-22T12:31:04;4.25;;;3.90;;
52724;SDS011;38621;52.830;6.914;2023-12-22T12:33:32;4.00;;;3.25;;
52724;SDS011;38621;52.830;6.914;2023-12-22T12:36:01;4.38;;;3.97;;
52724;SDS011;38621;52.830;6.914;2023-12-22T12:38:40;5.65;;;3.53;;
52724;SDS011;38621;52.830;6.914;2023-12-22T12:41:30;5.43;;;3.75;;
52724;SDS011;38621;52.830;6.914;2023-12-22T12:46:35;4.05;;;3.75;;
52724;SDS011;38621;52.830;6.914;2023-12-22T12:49:08;8.70;;;4.30;;
52724;SDS011;38621;52.830;6.914;2023-12-22T12:51:41;4.93;;;4.22;;
52724;SDS011;38621;52.830;6.914;2023-12-22T12:54:08;8.38;;;4.32;;
52724;SDS011;38621;52.830;6.914;2023-12-22T12:56:41;4.60;;;4.20;;
52724;SDS011;38621;52.830;6.914;2023-12-22T12:59:09;5.07;;;4.60;;
52724;SDS011;38621;52.830;6.914;2023-12-22T13:01:39;5.35;;;4.40;;
52724;SDS011;38621;52.830;6.914;2023-12-22T13:04:06;4.78;;;4.47;;
52724;SDS011;38621;52.830;6.914;2023-12-22T13:06:32;5.72;;;4.35;;
52724;SDS011;38621;52.830;6.914;2023-12-22T13:08:58;5.68;;;4.90;;
52724;SDS011;38621;52.830;6.914;2023-12-22T13:11:24;6.13;;;5.57;;
52724;SDS011;38621;52.830;6.914;2023-12-22T13:13:52;10.25;;;5.72;;
52724;SDS011;38621;52.830;6.914;2023-12-22T13:16:19;5.93;;;5.35;;
52724;SDS011;38621;52.830;6.914;2023-12-22T13:18:46;5.35;;;4.95;;
52724;SDS011;38621;52.830;6.914;2023-12-22T13:21:12;7.43;;;6.05;;
52724;SDS011;38621;52.830;6.914;2023-12-22T13:23:39;5.97;;;5.45;;
52724;SDS011;38621;52.830;6.914;2023-12-22T13:26:05;7.68;;;6.13;;
52724;SDS011;38621;52.830;6.914;2023-12-22T13:28:30;5.88;;;5.47;;
52724;SDS011;38621;52.830;6.914;2023-12-22T13:30:56;7.38;;;5.30;;
52724;SDS011;38621;52.830;6.914;2023-12-22T13:33:22;7.20;;;6.25;;
52724;SDS011;38621;52.830;6.914;2023-12-22T13:35:56;5.95;;;5.50;;
52724;SDS011;38621;52.830;6.914;2023-12-22T13:38:23;5.45;;;5.05;;
52724;SDS011;38621;52.830;6.914;2023-12-22T13:40:49;6.25;;;5.65;;
52724;SDS011;38621;52.830;6.914;2023-12-22T13:43:15;6.55;;;4.90;;
52724;SDS011;38621;52.830;6.914;2023-12-22T13:45:40;6.28;;;5.28;;
52724;SDS011;38621;52.830;6.914;2023-12-22T13:48:06;7.38;;;5.35;;
52724;SDS011;38621;52.830;6.914;2023-12-22T13:50:33;7.95;;;5.45;;
52724;SDS011;38621;52.830;6.914;2023-12-22T13:53:10;5.25;;;4.95;;
52724;SDS011;38621;52.830;6.914;2023-12-22T13:55:36;5.60;;;5.00;;
52724;SDS011;38621;52.830;6.914;2023-12-22T13:58:03;6.30;;;5.22;;
52724;SDS011;38621;52.830;6.914;2023-12-22T14:00:29;5.93;;;5.43;;
52724;SDS011;38621;52.830;6.914;2023-12-22T14:02:56;5.57;;;5.18;;
52724;SDS011;38621;52.830;6.914;2023-12-22T14:05:23;5.57;;;5.07;;
52724;SDS011;38621;52.830;6.914;2023-12-22T14:07:49;6.57;;;5.78;;
52724;SDS011;38621;52.830;6.914;2023-12-22T14:10:15;5.30;;;5.00;;
52724;SDS011;38621;52.830;6.914;2023-12-22T14:12:41;7.82;;;5.93;;
52724;SDS011;38621;52.830;6.914;2023-12-22T14:15:10;6.20;;;5.70;;
52724;SDS011;38621;52.830;6.914;2023-12-22T14:17:36;6.32;;;5.93;;
52724;SDS011;38621;52.830;6.914;2023-12-22T14:20:03;7.95;;;5.78;;
52724;SDS011;38621;52.830;6.914;2023-12-22T14:22:35;6.70;;;6.22;;
52724;SDS011;38621;52.830;6.914;2023-12-22T14:25:01;6.30;;;5.90;;
52724;SDS011;38621;52.830;6.914;2023-12-22T14:27:27;5.80;;;5.30;;
52724;SDS011;38621;52.830;6.914;2023-12-22T14:29:52;6.43;;;5.93;;
52724;SDS011;38621;52.830;6.914;2023-12-22T14:32:18;6.75;;;6.18;;
52724;SDS011;38621;52.830;6.914;2023-12-22T14:34:47;7.22;;;6.57;;
52724;SDS011;38621;52.830;6.914;2023-12-22T14:37:13;6.93;;;6.22;;
52724;SDS011;38621;52.830;6.914;2023-12-22T14:39:42;7.47;;;6.68;;
52724;SDS011;38621;52.830;6.914;2023-12-22T14:42:07;7.03;;;6.45;;
52724;SDS011;38621;52.830;6.914;2023-12-22T14:44:33;7.05;;;5.85;;
52724;SDS011;38621;52.830;6.914;2023-12-22T14:46:59;7.00;;;6.40;;
52724;SDS011;38621;52.830;6.914;2023-12-22T14:49:24;6.88;;;5.88;;
52724;SDS011;38621;52.830;6.914;2023-12-22T14:51:50;6.55;;;6.25;;